Time;durP1;ratioP1;P1;durP2;ratioP2;P2;SDS_P1;SDS_P2;PMS_P1;PMS_P2;Temp;Humidity;BMP_temperature;BMP_pressure;BME280_temperature;BME280_humidity;BME280_pressure;Samples;Min_cycle;Max_cycle;Signal;HPM_P1;HPM_P2
2021/11/04 00:00:10;;;;;;;1.45;1.30;;;17.70;58.40;;;;;;5076421;28;20031;-53
2021/11/04 00:02:36;;;;;;;1.55;1.10;;;17.70;58.40;;;;;;5076522;28;20066;-54
2021/11/04 00:05:04;;;;;;;1.52;1.08;;;17.70;58.40;;;;;;5075170;28;20023;-54
2021/11/04 00:07:30;;;;;;;1.30;1.20;;;17.70;58.40;;;;;;5047162;28;20060;-55
2021/11/04 00:09:56;;;;;;;1.98;1.30;;;17.70;58.40;;;;;;5056047;28;20066;-54
2021/11/04 00:12:23;;;;;;;1.63;1.30;;;17.70;58.40;;;;;;5039767;28;20021;-54
2021/11/04 00:14:49;;;;;;;2.42;1.35;;;17.70;58.40;;;;;;5037903;28;20020;-53
2021/11/04 00:17:15;;;;;;;1.33;1.23;;;17.70;58.50;;;;;;5037265;28;20021;-54
2021/11/04 00:19:41;;;;;;;1.30;1.17;;;17.70;58.50;;;;;;5055158;28;20086;-54
2021/11/04 00:22:08;;;;;;;1.27;0.93;;;17.70;58.50;;;;;;5055646;28;20021;-54
2021/11/04 00:24:34;;;;;;;2.17;1.10;;;17.70;58.50;;;;;;5055369;28;20051;-53
2021/11/04 00:27:00;;;;;;;1.80;1.10;;;17.70;58.50;;;;;;5037303;28;20029;-54
2021/11/04 00:29:26;;;;;;;1.60;1.13;;;17.70;58.50;;;;;;5056810;28;20024;-53
2021/11/04 00:31:52;;;;;;;1.85;1.35;;;17.60;58.50;;;;;;5055505;28;20029;-53
2021/11/04 00:34:19;;;;;;;1.38;1.20;;;17.70;58.50;;;;;;5037711;28;20135;-53
2021/11/04 00:36:45;;;;;;;1.40;1.13;;;17.60;58.40;;;;;;5055607;28;20021;-53
2021/11/04 00:39:12;;;;;;;1.58;1.10;;;17.70;58.50;;;;;;5055471;28;20040;-54
2021/11/04 00:41:39;;;;;;;1.65;1.17;;;17.60;58.50;;;;;;5055764;28;20016;-53
2021/11/04 00:44:05;;;;;;;1.98;1.38;;;17.60;58.50;;;;;;5055742;28;20138;-55
2021/11/04 00:46:31;;;;;;;1.30;1.05;;;17.60;58.50;;;;;;5054753;28;20036;-53
2021/11/04 00:48:58;;;;;;;2.00;1.27;;;17.60;58.50;;;;;;5037743;28;20019;-54
2021/11/04 00:51:24;;;;;;;1.20;1.10;;;17.60;58.50;;;;;;5055230;28;20005;-54
2021/11/04 00:53:50;;;;;;;1.10;1.00;;;17.60;58.50;;;;;;5037033;28;20028;-54
2021/11/04 00:56:17;;;;;;;2.08;1.40;;;17.60;58.50;;;;;;5054998;28;20061;-52
2021/11/04 00:58:44;;;;;;;1.52;1.30;;;17.60;58.50;;;;;;5054917;28;20021;-57
2021/11/04 01:01:10;;;;;;;2.20;1.40;;;17.60;58.50;;;;;;5054228;28;20013;-54
2021/11/04 01:03:36;;;;;;;1.40;1.23;;;17.60;58.60;;;;;;5054486;28;20005;-55
2021/11/04 01:06:02;;;;;;;1.10;0.98;;;17.60;58.60;;;;;;5054172;28;20025;-54
2021/11/04 01:08:28;;;;;;;1.63;1.10;;;17.60;58.60;;;;;;5074719;28;20458;-54
2021/11/04 01:10:55;;;;;;;1.70;1.42;;;17.60;58.50;;;;;;5075309;28;20023;-54
2021/11/04 01:13:23;;;;;;;2.42;1.40;;;17.60;58.50;;;;;;5075108;28;20021;-53
2021/11/04 01:15:49;;;;;;;1.90;1.40;;;17.60;58.50;;;;;;5074673;28;20020;-54
2021/11/04 01:18:15;;;;;;;1.80;1.30;;;17.60;58.50;;;;;;5074930;28;20016;-53
2021/11/04 01:20:42;;;;;;;1.40;1.20;;;17.50;58.50;;;;;;5074616;28;20407;-53
2021/11/04 01:23:08;;;;;;;1.58;1.30;;;17.60;58.60;;;;;;5074703;28;20016;-54
2021/11/04 01:25:34;;;;;;;1.77;1.42;;;17.60;58.60;;;;;;5074582;28;20024;-53
2021/11/04 01:28:06;;;;;;;1.25;1.10;;;17.50;58.60;;;;;;5075377;28;20048;-54
2021/11/04 01:30:32;;;;;;;1.30;1.15;;;17.50;58.60;;;;;;5074417;28;20021;-55
2021/11/04 01:32:58;;;;;;;1.60;1.10;;;17.50;58.60;;;;;;5074497;28;20115;-54
2021/11/04 01:35:25;;;;;;;1.73;1.30;;;17.50;58.60;;;;;;5074396;28;20364;-53
2021/11/04 01:37:55;;;;;;;2.38;1.30;;;17.50;58.50;;;;;;5073788;28;20085;-56
2021/11/04 01:40:21;;;;;;;1.65;1.25;;;17.50;58.60;;;;;;5073987;28;20022;-54
2021/11/04 01:42:47;;;;;;;1.40;1.30;;;17.50;58.60;;;;;;5074172;28;20108;-53
2021/11/04 01:45:13;;;;;;;1.48;1.00;;;17.50;58.60;;;;;;5073943;28;20107;-53
2021/11/04 01:47:40;;;;;;;1.20;0.90;;;17.50;58.60;;;;;;5073770;28;20029;-57
2021/11/04 01:50:07;;;;;;;1.40;1.15;;;17.50;58.60;;;;;;5056454;28;20020;-55
2021/11/04 01:52:33;;;;;;;1.23;1.13;;;17.50;58.60;;;;;;5073685;28;20106;-54
2021/11/04 01:54:59;;;;;;;1.25;1.10;;;17.50;58.60;;;;;;5055000;28;20008;-55
2021/11/04 01:57:26;;;;;;;1.67;1.38;;;17.50;58.60;;;;;;5056037;28;20040;-54
2021/11/04 01:59:53;;;;;;;2.13;1.23;;;17.50;58.70;;;;;;5074809;28;20032;-55
2021/11/04 02:02:20;;;;;;;1.63;1.10;;;17.50;58.60;;;;;;5056509;28;20013;-55
2021/11/04 02:04:56;;;;;;;1.50;1.20;;;17.50;58.60;;;;;;5074713;28;20078;-54
2021/11/04 02:07:45;;;;;;;1.13;0.98;;;17.40;58.60;;;;;;5056909;28;20051;-54
2021/11/04 02:10:39;;;;;;;1.20;1.00;;;17.50;58.60;;;;;;5073951;28;20013;-53
2021/11/04 02:14:00;;;;;;;1.85;1.25;;;17.50;58.60;;;;;;5073562;28;20013;-54
2021/11/04 02:16:27;;;;;;;1.10;1.00;;;17.50;58.60;;;;;;4955783;28;20085;-54
2021/11/04 02:18:55;;;;;;;1.38;1.20;;;17.50;58.60;;;;;;4956629;28;20069;-55
2021/11/04 02:21:29;;;;;;;2.13;1.30;;;17.40;58.60;;;;;;4940752;28;20573;-55
2021/11/04 02:24:01;;;;;;;1.42;1.13;;;17.40;58.60;;;;;;4972904;28;20123;-54
2021/11/04 02:26:26;;;;;;;;;;;17.40;58.70;;;;;;4957143;28;20023;-57
2021/11/04 02:28:53;;;;;;;1.48;1.10;;;17.40;58.70;;;;;;4972618;28;19909;-55
2021/11/04 02:31:22;;;;;;;1.42;1.10;;;17.40;58.60;;;;;;4956159;28;20510;-53
2021/11/04 02:33:48;;;;;;;1.40;1.17;;;17.40;58.70;;;;;;4972425;28;20030;-53
2021/11/04 02:36:14;;;;;;;1.20;1.10;;;17.40;58.70;;;;;;4972753;28;20046;-54
2021/11/04 02:38:40;;;;;;;1.30;1.20;;;17.40;58.60;;;;;;4940190;28;20108;-54
2021/11/04 02:41:06;;;;;;;1.45;1.10;;;17.40;58.70;;;;;;4976112;28;20066;-53
2021/11/04 02:43:33;;;;;;;1.40;1.17;;;17.40;58.70;;;;;;4976538;28;20097;-55
2021/11/04 02:45:59;;;;;;;1.00;0.98;;;17.40;58.60;;;;;;4977290;28;20019;-54
2021/11/04 02:48:27;;;;;;;2.33;1.20;;;17.40;58.60;;;;;;4975735;28;20030;-54
2021/11/04 02:50:53;;;;;;;1.33;1.02;;;17.40;58.70;;;;;;5044156;28;20045;-54
2021/11/04 02:53:21;;;;;;;1.30;1.13;;;17.40;58.60;;;;;;5061112;28;20005;-55
2021/11/04 02:55:48;;;;;;;1.20;1.02;;;17.40;58.70;;;;;;5077906;28;20087;-53
2021/11/04 02:58:14;;;;;;;1.58;1.23;;;17.40;58.60;;;;;;5077257;28;20058;-54
2021/11/04 03:00:41;;;;;;;1.85;1.23;;;17.30;58.60;;;;;;5077172;28;20025;-54
2021/11/04 03:03:07;;;;;;;1.52;1.10;;;17.40;58.70;;;;;;5077456;28;20021;-54
2021/11/04 03:05:33;;;;;;;1.08;0.98;;;17.40;58.70;;;;;;5076890;28;20469;-53
2021/11/04 03:07:59;;;;;;;1.05;1.02;;;17.40;58.70;;;;;;5076603;28;20049;-54
2021/11/04 03:10:25;;;;;;;1.45;1.25;;;17.30;58.70;;;;;;5060113;28;20576;-54
2021/11/04 03:12:54;;;;;;;1.20;1.05;;;17.40;58.80;;;;;;5059612;28;20052;-55
2021/11/04 03:15:21;;;;;;;1.30;1.20;;;17.40;58.70;;;;;;5059098;28;20028;-54
2021/11/04 03:17:49;;;;;;;1.50;1.20;;;17.40;58.70;;;;;;5077284;28;20020;-54
2021/11/04 03:20:18;;;;;;;1.23;0.95;;;17.30;58.70;;;;;;5059891;28;20117;-54
2021/11/04 03:22:46;;;;;;;1.50;1.10;;;17.40;58.70;;;;;;5076449;28;20020;-54
2021/11/04 03:25:14;;;;;;;1.45;1.23;;;17.40;58.70;;;;;;5057742;28;20028;-54
2021/11/04 03:27:41;;;;;;;1.35;0.98;;;17.30;58.70;;;;;;5076744;28;20498;-55
2021/11/04 03:30:08;;;;;;;1.35;1.10;;;17.30;58.70;;;;;;5075961;28;20027;-54
2021/11/04 03:32:34;;;;;;;1.10;0.90;;;17.30;58.70;;;;;;5058548;28;20025;-54
2021/11/04 03:35:00;;;;;;;1.50;1.10;;;17.30;58.70;;;;;;5058177;28;20020;-54
2021/11/04 03:37:27;;;;;;;1.23;1.05;;;17.30;58.70;;;;;;5058565;28;20063;-54
2021/11/04 03:39:53;;;;;;;1.05;0.95;;;17.30;58.70;;;;;;5075797;28;20020;-54
2021/11/04 03:42:19;;;;;;;1.27;1.10;;;17.30;58.70;;;;;;5058069;28;20084;-53
2021/11/04 03:44:45;;;;;;;1.23;1.05;;;17.30;58.70;;;;;;5076267;28;20019;-54
2021/11/04 03:47:12;;;;;;;1.75;1.27;;;17.30;58.70;;;;;;5058242;28;20025;-56
2021/11/04 03:49:38;;;;;;;1.60;1.13;;;17.30;58.70;;;;;;5075263;28;20024;-53
2021/11/04 03:52:04;;;;;;;1.15;0.95;;;17.30;58.70;;;;;;5075768;28;20017;-54
2021/11/04 03:54:30;;;;;;;1.85;1.20;;;17.30;58.70;;;;;;5075907;28;20013;-54
2021/11/04 03:56:57;;;;;;;1.70;1.35;;;17.30;58.70;;;;;;5075550;28;20025;-53
2021/11/04 03:59:23;;;;;;;1.30;1.20;;;17.30;58.70;;;;;;5076103;28;20025;-54
2021/11/04 04:01:50;;;;;;;2.58;1.08;;;17.30;58.70;;;;;;5075364;28;20020;-54
2021/11/04 04:04:15;;;;;;;1.60;1.10;;;17.30;58.70;;;;;;5058535;28;20019;-53
2021/11/04 04:06:42;;;;;;;1.42;1.20;;;17.30;58.70;;;;;;5075040;28;20452;-53
2021/11/04 04:09:08;;;;;;;1.10;1.00;;;17.20;58.70;;;;;;5074952;28;20056;-55
2021/11/04 04:11:34;;;;;;;1.30;1.08;;;17.30;58.70;;;;;;5041010;28;20037;-53
2021/11/04 04:14:00;;;;;;;3.30;1.15;;;17.30;58.70;;;;;;5040956;28;20019;-54
2021/11/04 04:16:27;;;;;;;1.20;1.10;;;17.30;58.60;;;;;;5074992;28;20491;-54
2021/11/04 04:18:54;;;;;;;1.65;1.08;;;17.30;58.60;;;;;;5075748;28;20020;-54
2021/11/04 04:21:20;;;;;;;1.38;1.27;;;17.40;58.30;;;;;;5075547;28;20020;-54
2021/11/04 04:23:46;;;;;;;1.60;1.05;;;17.50;58.00;;;;;;5076260;28;20045;-53
2021/11/04 04:26:13;;;;;;;0.90;0.90;;;17.60;57.60;;;;;;5041897;28;20016;-53
2021/11/04 04:28:40;;;;;;;1.33;1.23;;;17.70;57.30;;;;;;5076498;28;20032;-54
2021/11/04 04:31:07;;;;;;;1.05;0.88;;;17.80;56.90;;;;;;5078087;28;20015;-53
2021/11/04 04:33:33;;;;;;;1.27;1.17;;;17.90;57.00;;;;;;5076818;28;20009;-56
2021/11/04 04:35:59;;;;;;;2.42;1.20;;;17.90;56.60;;;;;;5074820;28;20009;-55
2021/11/04 04:38:25;;;;;;;1.88;1.20;;;18.10;56.50;;;;;;5075696;28;20083;-56
2021/11/04 04:40:54;;;;;;;1.00;0.90;;;18.20;56.20;;;;;;5060140;28;20483;-55
2021/11/04 04:43:19;;;;;;;1.23;1.05;;;18.20;55.90;;;;;;5075214;28;20032;-58
2021/11/04 04:45:45;;;;;;;1.02;0.88;;;18.30;55.70;;;;;;5074605;28;20059;-55
2021/11/04 04:48:12;;;;;;;1.40;1.20;;;18.40;55.50;;;;;;5075159;28;20070;-58
2021/11/04 04:50:39;;;;;;;1.38;1.10;;;18.50;55.20;;;;;;5057753;28;20023;-54
2021/11/04 04:53:08;;;;;;;1.42;0.98;;;18.60;55.10;;;;;;5074531;28;20073;-55
2021/11/04 04:55:34;;;;;;;1.13;1.02;;;18.70;54.90;;;;;;5074300;28;20004;-54
2021/11/04 04:58:00;;;;;;;1.73;1.02;;;18.80;54.70;;;;;;5074091;28;20025;-53
2021/11/04 05:00:26;;;;;;;1.27;1.10;;;18.90;54.40;;;;;;5056853;28;20017;-53
2021/11/04 05:02:52;;;;;;;1.08;0.93;;;18.90;54.10;;;;;;5073609;28;20028;-54
2021/11/04 05:05:18;;;;;;;1.00;0.90;;;19.10;53.90;;;;;;5056225;28;20013;-53
2021/11/04 05:07:45;;;;;;;1.65;0.90;;;19.20;53.70;;;;;;5073680;28;20516;-52
2021/11/04 05:10:11;;;;;;;1.17;1.08;;;19.30;53.50;;;;;;5074741;28;20040;-51
2021/11/04 05:12:38;;;;;;;1.05;0.95;;;19.40;53.10;;;;;;5073986;28;20009;-54
2021/11/04 05:15:04;;;;;;;1.30;0.90;;;19.50;52.90;;;;;;5075381;28;20353;-53
2021/11/04 05:17:30;;;;;;;1.52;1.02;;;19.60;52.70;;;;;;5074172;28;20021;-54
2021/11/04 05:19:55;;;;;;;1.40;0.98;;;19.70;52.50;;;;;;5056231;28;20020;-54
2021/11/04 05:22:22;;;;;;;1.48;1.17;;;19.80;52.30;;;;;;5073732;28;20021;-51
2021/11/04 05:24:48;;;;;;;1.10;0.90;;;19.80;52.10;;;;;;5055737;28;20383;-53
2021/11/04 05:27:16;;;;;;;1.00;0.70;;;20.00;51.90;;;;;;5073566;28;20086;-51
2021/11/04 05:29:42;;;;;;;1.50;0.88;;;20.00;51.70;;;;;;5073757;28;20016;-51
2021/11/04 05:32:08;;;;;;;1.70;1.00;;;20.10;51.50;;;;;;5073836;28;20009;-51
2021/11/04 05:34:35;;;;;;;1.05;0.88;;;20.20;51.30;;;;;;5073629;28;20074;-53
2021/11/04 05:37:01;;;;;;;1.23;1.10;;;20.20;51.20;;;;;;5073716;28;20020;-56
2021/11/04 05:39:27;;;;;;;1.67;1.02;;;20.30;51.00;;;;;;5074088;28;20024;-53
2021/11/04 05:41:53;;;;;;;1.05;0.77;;;20.40;50.80;;;;;;5073749;28;20025;-54
2021/11/04 05:44:19;;;;;;;1.00;0.90;;;20.40;50.70;;;;;;5073874;28;20032;-53
2021/11/04 05:46:46;;;;;;;1.30;0.93;;;20.40;50.70;;;;;;5073608;28;20016;-53
2021/11/04 05:49:11;;;;;;;1.02;0.93;;;20.50;50.70;;;;;;5075137;28;20027;-51
2021/11/04 05:51:38;;;;;;;1.25;0.90;;;20.40;50.70;;;;;;5074657;28;20375;-52
2021/11/04 05:54:04;;;;;;;1.00;0.90;;;20.40;50.70;;;;;;5073735;28;20043;-55
2021/11/04 05:56:31;;;;;;;1.10;1.00;;;20.40;50.80;;;;;;5056996;28;20472;-52
2021/11/04 05:58:57;;;;;;;1.00;0.90;;;20.40;50.70;;;;;;5074622;28;20016;-53
2021/11/04 06:01:27;;;;;;;1.65;1.05;;;20.40;50.90;;;;;;5073533;28;20024;-54
2021/11/04 06:03:53;;;;;;;1.00;0.90;;;20.40;50.90;;;;;;5074701;28;20029;-53
2021/11/04 06:06:18;;;;;;;2.33;0.80;;;20.40;50.90;;;;;;5074612;28;20062;-54
2021/11/04 06:08:44;;;;;;;1.00;0.90;;;20.40;50.90;;;;;;5074525;28;20119;-54
2021/11/04 06:11:11;;;;;;;1.23;1.00;;;20.40;50.90;;;;;;5074451;28;20056;-51
2021/11/04 06:13:36;;;;;;;1.20;0.80;;;20.50;50.90;;;;;;5076408;28;20017;-54
2021/11/04 06:16:03;;;;;;;0.90;0.77;;;20.50;51.00;;;;;;5078251;28;20020;-54
2021/11/04 06:18:30;;;;;;;1.25;0.90;;;20.40;50.80;;;;;;5078248;28;20056;-54
2021/11/04 06:20:56;;;;;;;1.00;0.90;;;20.50;50.90;;;;;;5077543;28;20024;-57
2021/11/04 06:23:23;;;;;;;1.08;0.90;;;20.50;50.80;;;;;;5079016;28;20016;-54
2021/11/04 06:25:49;;;;;;;1.15;1.00;;;20.50;50.80;;;;;;5077534;28;20024;-54
2021/11/04 06:28:16;;;;;;;2.00;0.90;;;20.50;50.80;;;;;;5077029;28;20029;-52
2021/11/04 06:30:41;;;;;;;1.10;1.00;;;20.50;50.70;;;;;;5077229;28;20050;-53
2021/11/04 06:33:08;;;;;;;1.10;1.00;;;20.60;50.70;;;;;;5059561;28;20025;-54
2021/11/04 06:35:34;;;;;;;0.80;0.80;;;20.60;50.70;;;;;;5077536;28;20013;-53
2021/11/04 06:37:59;;;;;;;0.80;0.80;;;20.60;50.60;;;;;;5059333;28;20045;-54
2021/11/04 06:40:27;;;;;;;1.33;1.02;;;20.60;50.60;;;;;;5059671;28;20411;-54
2021/11/04 06:42:53;;;;;;;1.05;0.90;;;20.70;50.60;;;;;;5076826;28;20111;-53
2021/11/04 06:45:19;;;;;;;0.82;0.80;;;20.60;50.60;;;;;;5060064;28;20063;-52
2021/11/04 06:47:50;;;;;;;1.00;0.90;;;20.70;50.60;;;;;;5077300;28;20052;-53
2021/11/04 06:50:20;;;;;;;0.88;0.80;;;20.70;50.50;;;;;;5077557;28;20096;-54
2021/11/04 06:52:56;;;;;;;0.98;0.90;;;20.70;50.60;;;;;;5077667;28;20016;-54
2021/11/04 06:55:25;;;;;;;1.00;0.80;;;20.70;50.60;;;;;;5078718;28;20028;-54
2021/11/04 06:57:52;;;;;;;0.80;0.80;;;20.70;50.60;;;;;;5077678;28;20040;-54
2021/11/04 07:00:18;;;;;;;1.13;0.80;;;20.70;50.50;;;;;;5058355;28;20013;-57
2021/11/04 07:02:44;;;;;;;1.67;1.05;;;20.70;50.50;;;;;;5058640;28;20031;-53
2021/11/04 07:05:12;;;;;;;0.73;0.73;;;20.80;50.50;;;;;;5059597;28;20017;-55
2021/11/04 07:07:47;;;;;;;1.33;0.90;;;20.80;51.00;;;;;;5077112;28;20044;-51
2021/11/04 07:10:13;;;;;;;2.80;0.90;;;20.80;50.50;;;;;;5076786;28;20024;-54
2021/11/04 07:12:45;;;;;;;1.10;1.00;;;20.80;50.50;;;;;;5076636;28;20016;-54
2021/11/04 07:15:11;;;;;;;0.70;0.70;;;20.80;50.50;;;;;;5076780;28;20020;-54
2021/11/04 07:17:39;;;;;;;1.48;0.90;;;20.80;50.40;;;;;;5057937;28;20477;-52
2021/11/04 07:20:06;;;;;;;1.30;0.90;;;20.80;50.40;;;;;;5075761;28;20017;-54
2021/11/04 07:22:43;;;;;;;0.70;0.70;;;20.90;50.90;;;;;;5076394;28;20388;-51
2021/11/04 07:25:16;;;;;;;0.93;0.80;;;20.90;50.30;;;;;;5075149;28;20051;-55
2021/11/04 07:27:58;;;;;;;0.93;0.82;;;20.80;50.40;;;;;;5075776;28;20039;-53
2021/11/04 07:30:25;;;;;;;1.33;0.90;;;20.90;50.40;;;;;;5075957;28;20021;-50
2021/11/04 07:32:56;;;;;;;1.02;0.80;;;20.90;50.20;;;;;;5076135;28;20143;-51
2021/11/04 07:35:35;;;;;;;0.97;0.90;;;20.90;50.20;;;;;;5058366;28;20055;-54
2021/11/04 07:38:05;;;;;;;0.90;0.80;;;21.00;50.20;;;;;;5075651;28;20047;-54
2021/11/04 07:40:31;;;;;;;1.35;0.90;;;21.00;50.30;;;;;;5075364;28;20472;-52
2021/11/04 07:42:57;;;;;;;1.30;1.00;;;21.00;50.30;;;;;;5058131;28;20031;-55
2021/11/04 07:45:23;;;;;;;1.20;0.90;;;21.00;50.20;;;;;;5041403;28;20404;-54
2021/11/04 07:47:49;;;;;;;0.60;0.60;;;21.00;50.20;;;;;;5075709;28;20472;-52
2021/11/04 07:50:18;;;;;;;1.38;1.08;;;21.00;50.20;;;;;;5057569;28;20021;-54
2021/11/04 07:52:44;;;;;;;1.10;0.82;;;21.10;50.10;;;;;;5076175;28;20016;-54
2021/11/04 07:55:10;;;;;;;1.08;0.90;;;21.10;50.10;;;;;;5076301;28;20008;-53
2021/11/04 07:57:37;;;;;;;1.17;1.00;;;21.10;50.10;;;;;;5058167;28;20073;-52
2021/11/04 08:00:08;;;;;;;0.95;0.88;;;21.10;50.10;;;;;;5057998;28;20078;-52
2021/11/04 08:02:34;;;;;;;1.08;0.80;;;21.10;50.10;;;;;;5075720;28;20024;-53
2021/11/04 08:05:00;;;;;;;1.00;0.90;;;21.10;50.10;;;;;;5077104;28;20023;-56
2021/11/04 08:07:29;;;;;;;1.40;0.95;;;21.10;50.10;;;;;;5075545;28;20044;-54
2021/11/04 08:09:56;;;;;;;1.17;0.95;;;21.10;50.10;;;;;;5075152;28;20044;-53
2021/11/04 08:12:22;;;;;;;1.70;1.00;;;21.10;50.00;;;;;;5076122;28;20009;-54
2021/11/04 08:14:47;;;;;;;1.02;0.98;;;21.10;50.00;;;;;;5076039;28;20480;-55
2021/11/04 08:17:14;;;;;;;0.95;0.80;;;21.20;50.00;;;;;;5077383;28;20073;-53
2021/11/04 08:19:40;;;;;;;1.88;0.82;;;21.10;49.90;;;;;;5058782;28;20482;-55
2021/11/04 08:22:06;;;;;;;1.00;0.90;;;21.10;49.90;;;;;;5078407;28;20075;-54
2021/11/04 08:24:32;;;;;;;1.92;0.93;;;21.20;49.80;;;;;;5078366;28;20029;-54
2021/11/04 08:26:58;;;;;;;1.40;1.13;;;21.20;49.80;;;;;;5078095;28;20498;-52
2021/11/04 08:29:24;;;;;;;1.10;1.00;;;21.20;49.80;;;;;;5060241;28;20017;-54
2021/11/04 08:31:50;;;;;;;1.42;1.20;;;21.20;49.70;;;;;;5076887;28;20017;-54
2021/11/04 08:34:15;;;;;;;1.00;0.90;;;21.20;49.70;;;;;;5059565;28;20017;-54
2021/11/04 08:36:43;;;;;;;1.00;0.90;;;21.20;49.80;;;;;;5057909;28;20025;-50
2021/11/04 08:39:09;;;;;;;1.27;1.17;;;21.30;49.80;;;;;;5058401;28;20016;-51
2021/11/04 08:41:35;;;;;;;2.05;0.98;;;21.30;49.80;;;;;;5075531;28;20472;-51
2021/11/04 08:44:01;;;;;;;1.27;1.10;;;21.20;49.80;;;;;;5076169;28;20048;-52
2021/11/04 08:46:27;;;;;;;1.20;1.10;;;21.20;49.80;;;;;;5058386;28;20024;-51
2021/11/04 08:48:53;;;;;;;1.38;1.10;;;21.30;49.80;;;;;;5075562;28;20029;-52
2021/11/04 08:51:18;;;;;;;1.20;1.00;;;21.30;49.80;;;;;;5075209;28;20012;-56
2021/11/04 08:53:45;;;;;;;1.20;1.00;;;21.30;49.80;;;;;;5075968;28;20130;-55
2021/11/04 08:56:11;;;;;;;1.83;1.20;;;21.30;49.80;;;;;;5075819;28;20017;-54
2021/11/04 08:58:37;;;;;;;1.48;1.08;;;21.30;49.80;;;;;;5075986;28;20017;-54
2021/11/04 09:01:04;;;;;;;1.00;0.80;;;21.30;49.80;;;;;;5057291;28;20013;-54
2021/11/04 09:03:31;;;;;;;1.10;0.90;;;21.30;50.20;;;;;;5058704;28;20012;-54
2021/11/04 09:05:58;;;;;;;1.23;0.90;;;21.40;49.70;;;;;;5075586;28;20017;-54
2021/11/04 09:08:25;;;;;;;1.58;1.00;;;21.40;49.70;;;;;;5075132;28;20048;-52
2021/11/04 09:10:51;;;;;;;1.42;1.02;;;21.40;49.70;;;;;;5074757;28;20013;-52
2021/11/04 09:13:17;;;;;;;1.65;1.25;;;21.30;49.60;;;;;;5074502;28;20071;-56
2021/11/04 09:15:45;;;;;;;1.00;0.90;;;21.40;49.70;;;;;;5074563;28;20020;-54
2021/11/04 09:18:13;;;;;;;1.13;0.93;;;21.40;49.70;;;;;;5040791;28;20389;-54
2021/11/04 09:20:39;;;;;;;1.30;0.90;;;21.40;49.70;;;;;;5074918;28;20036;-54
2021/11/04 09:23:06;;;;;;;1.10;0.95;;;21.40;49.70;;;;;;5073963;28;20538;-55
2021/11/04 09:25:32;;;;;;;1.02;0.90;;;21.40;49.70;;;;;;5075697;28;20115;-54
2021/11/04 09:27:58;;;;;;;1.13;1.00;;;21.40;49.70;;;;;;5060998;28;20059;-53
2021/11/04 09:30:26;;;;;;;0.98;0.88;;;21.50;49.70;;;;;;5078084;28;20001;-52
2021/11/04 09:32:52;;;;;;;2.30;1.08;;;21.50;49.60;;;;;;5078152;28;20013;-54
2021/11/04 09:35:18;;;;;;;1.05;0.95;;;21.50;49.60;;;;;;5077228;28;20091;-53
2021/11/04 09:37:45;;;;;;;1.80;1.10;;;21.50;49.60;;;;;;5058791;28;20025;-51
2021/11/04 09:40:11;;;;;;;1.20;0.88;;;21.50;49.60;;;;;;5059331;28;20020;-53
2021/11/04 09:42:37;;;;;;;1.17;1.00;;;21.50;49.70;;;;;;5076014;28;20016;-54
2021/11/04 09:45:04;;;;;;;1.05;0.82;;;21.50;49.50;;;;;;5075022;28;20020;-53
2021/11/04 09:47:31;;;;;;;1.30;0.90;;;21.50;49.50;;;;;;5057298;28;20489;-53
2021/11/04 09:50:08;;;;;;;1.05;0.90;;;21.50;49.60;;;;;;5058316;28;20016;-54
2021/11/04 09:52:35;;;;;;;1.55;1.27;;;21.60;49.50;;;;;;5074867;28;20084;-54
2021/11/04 09:55:03;;;;;;;1.52;1.00;;;21.50;49.50;;;;;;5057036;28;20107;-51
2021/11/04 09:57:29;;;;;;;1.45;1.00;;;21.50;49.50;;;;;;5075993;28;20028;-53
2021/11/04 09:59:55;;;;;;;1.27;1.05;;;21.60;49.60;;;;;;5074735;28;20021;-52
2021/11/04 10:02:23;;;;;;;1.20;1.02;;;21.60;49.50;;;;;;5074675;28;20039;-52
2021/11/04 10:04:50;;;;;;;1.30;1.00;;;21.60;49.40;;;;;;5075498;28;20016;-52
2021/11/04 10:07:16;;;;;;;1.10;0.90;;;21.60;49.50;;;;;;5074386;28;20117;-54
2021/11/04 10:09:44;;;;;;;1.63;1.05;;;21.60;49.40;;;;;;5074136;28;20040;-52
2021/11/04 10:12:14;;;;;;;1.40;1.05;;;21.60;49.50;;;;;;5055907;28;20092;-53
2021/11/04 10:14:40;;;;;;;1.07;0.97;;;21.60;49.50;;;;;;5055624;28;20021;-53
2021/11/04 10:17:41;;;;;;;1.00;0.90;;;21.60;49.50;;;;;;5073591;28;20025;-54
2021/11/04 10:20:15;;;;;;;1.67;1.10;;;21.60;49.40;;;;;;5073024;28;20042;-54
2021/11/04 10:22:41;;;;;;;1.08;0.90;;;21.60;49.50;;;;;;5073444;28;20032;-53
2021/11/04 10:25:24;;;;;;;1.92;0.95;;;21.60;49.60;;;;;;5073726;28;20062;-55
2021/11/04 10:27:51;;;;;;;1.98;1.08;;;21.60;49.50;;;;;;5057782;28;20032;-55
2021/11/04 10:30:40;;;;;;;1.17;0.93;;;21.60;49.50;;;;;;5073292;28;20084;-54
2021/11/04 10:33:23;;;;;;;1.92;1.33;;;21.70;49.50;;;;;;5073323;28;20016;-55
2021/11/04 10:36:11;;;;;;;1.38;1.02;;;21.70;49.50;;;;;;5073512;28;20013;-54
2021/11/04 10:38:47;;;;;;;1.00;0.77;;;21.70;49.50;;;;;;5073490;28;20016;-54
2021/11/04 10:41:25;;;;;;;1.73;1.00;;;21.70;49.50;;;;;;5073168;28;20472;-54
2021/11/04 10:44:08;;;;;;;0.90;0.77;;;21.70;49.60;;;;;;5073248;28;20037;-55
2021/11/04 10:46:48;;;;;;;1.65;1.17;;;21.60;49.50;;;;;;5073777;28;20028;-54
2021/11/04 10:49:14;;;;;;;1.10;1.00;;;21.70;49.60;;;;;;5055673;28;20081;-53
2021/11/04 10:51:40;;;;;;;1.85;1.30;;;21.70;49.60;;;;;;5054981;28;20017;-54
2021/11/04 10:54:07;;;;;;;1.00;0.90;;;21.70;49.60;;;;;;5072798;28;20119;-54
2021/11/04 10:56:37;;;;;;;1.10;1.00;;;21.60;49.60;;;;;;5073368;28;20025;-56
2021/11/04 10:59:08;;;;;;;1.53;1.00;;;21.70;49.70;;;;;;5055908;28;20020;-53
2021/11/04 11:01:40;;;;;;;1.88;1.10;;;21.70;49.70;;;;;;5058381;28;20028;-50
2021/11/04 11:04:09;;;;;;;2.40;1.10;;;21.60;49.70;;;;;;5076549;28;20013;-54
2021/11/04 11:06:59;;;;;;;2.78;1.00;;;21.60;49.80;;;;;;5076374;28;20040;-54
2021/11/04 11:09:27;;;;;;;1.55;1.00;;;21.60;49.80;;;;;;5057519;28;20036;-54
2021/11/04 11:11:54;;;;;;;1.48;1.10;;;21.60;49.80;;;;;;5076949;28;20024;-54
2021/11/04 11:14:27;;;;;;;1.40;1.00;;;21.60;49.80;;;;;;5076876;28;20009;-55
2021/11/04 11:16:58;;;;;;;1.65;1.00;;;21.70;49.90;;;;;;5077019;28;20088;-54
2021/11/04 11:19:34;;;;;;;1.20;1.10;;;21.60;49.80;;;;;;5058157;28;20009;-53
2021/11/04 11:22:00;;;;;;;1.17;0.95;;;21.60;49.80;;;;;;5076087;28;20078;-55
2021/11/04 11:24:33;;;;;;;1.27;0.98;;;21.70;49.90;;;;;;5058271;28;20393;-53
2021/11/04 11:27:03;;;;;;;2.10;1.27;;;21.70;49.80;;;;;;5076040;28;20021;-51
2021/11/04 11:29:36;;;;;;;1.27;1.05;;;21.70;49.80;;;;;;5077076;28;20031;-55
2021/11/04 11:32:04;;;;;;;0.98;0.80;;;21.70;49.90;;;;;;5076121;28;20111;-53
2021/11/04 11:34:32;;;;;;;1.80;1.10;;;21.70;49.80;;;;;;5076028;28;20004;-54
2021/11/04 11:37:11;;;;;;;2.08;1.10;;;21.80;49.80;;;;;;5076074;28;20020;-54
2021/11/04 11:39:51;;;;;;;1.95;1.23;;;21.70;49.80;;;;;;5076599;28;20543;-55
2021/11/04 11:42:26;;;;;;;2.05;1.20;;;21.80;49.70;;;;;;5076535;28;20016;-54
2021/11/04 11:44:59;;;;;;;0.90;0.90;;;21.80;49.60;;;;;;5076149;28;20004;-56
2021/11/04 11:47:28;;;;;;;1.10;1.00;;;21.80;49.60;;;;;;5076017;28;20032;-53
2021/11/04 11:50:26;;;;;;;1.40;1.05;;;21.80;49.50;;;;;;5076632;28;20099;-53
2021/11/04 11:53:00;;;;;;;1.13;0.90;;;21.80;49.60;;;;;;5075713;28;20017;-53
2021/11/04 11:55:43;;;;;;;0.80;0.80;;;21.80;49.50;;;;;;5075230;28;20376;-52
2021/11/04 11:58:20;;;;;;;1.70;1.10;;;21.80;49.60;;;;;;5076457;28;20013;-53
2021/11/04 12:00:57;;;;;;;1.42;1.05;;;21.80;49.60;;;;;;5075721;28;20417;-54
2021/11/04 12:03:35;;;;;;;1.00;0.90;;;21.80;49.60;;;;;;5075566;28;20074;-52
2021/11/04 12:06:01;;;;;;;1.88;1.20;;;21.80;49.50;;;;;;5076203;28;20029;-52
2021/11/04 12:08:27;;;;;;;1.42;0.90;;;21.90;49.60;;;;;;5056842;28;20044;-52
2021/11/04 12:10:53;;;;;;;1.10;1.00;;;21.80;49.60;;;;;;5057273;28;20392;-54
2021/11/04 12:13:41;;;;;;;1.30;1.20;;;21.80;49.60;;;;;;5057208;28;20012;-50
2021/11/04 12:16:18;;;;;;;0.93;0.88;;;21.80;49.50;;;;;;5075176;28;20082;-56
2021/11/04 12:18:54;;;;;;;1.23;1.02;;;21.80;49.50;;;;;;5056892;28;20108;-55
2021/11/04 12:21:27;;;;;;;2.45;1.00;;;21.80;49.60;;;;;;5074929;28;20024;-55
2021/11/04 12:23:57;;;;;;;1.25;1.00;;;21.80;49.60;;;;;;5074930;28;20045;-52
2021/11/04 12:26:34;;;;;;;1.17;1.00;;;21.80;49.60;;;;;;5074568;28;20020;-49
2021/11/04 12:29:02;;;;;;;4.63;1.60;;;21.80;49.60;;;;;;5074242;28;20063;-51
2021/11/04 12:31:28;;;;;;;4.63;2.00;;;21.70;49.20;;;;;;5074333;28;20004;-52
2021/11/04 12:33:57;;;;;;;8.90;2.85;;;21.70;48.80;;;;;;5056882;28;20043;-52
2021/11/04 12:36:40;;;;;;;14.32;3.05;;;21.70;49.00;;;;;;5074856;28;20017;-55
2021/11/04 12:39:07;;;;;;;52.65;6.57;;;21.60;48.80;;;;;;5074532;28;20021;-58
2021/11/04 12:41:33;;;;;;;49.85;4.40;;;21.60;48.60;;;;;;5074357;28;20021;-57
2021/11/04 12:44:08;;;;;;;63.67;7.40;;;21.60;48.30;;;;;;5056727;28;20021;-57
2021/11/04 12:46:35;;;;;;;78.65;8.18;;;21.50;47.90;;;;;;5074385;28;20538;-61
2021/11/04 12:49:07;;;;;;;68.03;7.63;;;21.50;47.80;;;;;;5074225;28;20044;-58
2021/11/04 12:51:51;;;;;;;65.93;6.82;;;21.50;47.60;;;;;;5057056;28;20033;-58
2021/11/04 12:54:18;;;;;;;54.92;5.55;;;21.40;47.40;;;;;;5056928;28;20013;-58